Dawson, Iowa
Current Conditions -  °F | °C
As of 11:15 PM on Tuesday 25 Nov 2014 (Local Time) from KPRO Reporting Station
Overcast Overcast  
Wind Chill: 23°   Ceiling: 7000
Heat Index: 32°   Visibility: 10mi
Dew Point: 21°   Wind: 12mph
Humidity: 65%   Direction: 140°SE
Pressure: 29.95"   Gusts: NA
Location:  41.84°N, 94.22°W
Report Text: KPRO 260515Z AUTO 14010KT 10SM OVC070 00/M06 A2995 RMK AO2 T10021060
Loading
Personal Weather Stations






























Interactive Weather Map New forecast layout! Learn more

10-Day Weather Forecast

Advertisements
Track Severe Weather on mobile